Time;durP1;ratioP1;P1;durP2;ratioP2;P2;SDS_P1;SDS_P2;PMS_P1;PMS_P2;Temp;Humidity;BMP_temperature;BMP_pressure;BME280_temperature;BME280_humidity;BME280_pressure;Samples;Min_cycle;Max_cycle;Signal;HPM_P1;HPM_P2
2024/01/11 00:02:23;;;;;;;;;;;-2.60;87.60;;;;;;4997034;28;92101;-44
2024/01/11 00:04:48;;;;;;;;;;;-2.60;87.60;;;;;;5000956;28;92603;-44
2024/01/11 00:07:14;;;;;;;;;;;-2.60;87.60;;;;;;4996943;28;93050;-45
2024/01/11 00:09:41;;;;;;;;;;;-2.60;87.60;;;;;;4990460;28;93617;-45
2024/01/11 00:12:06;;;;;;;;;;;-2.60;87.60;;;;;;4997742;28;92054;-44
2024/01/11 00:14:32;;;;;;;;;;;-2.60;87.50;;;;;;4994636;28;92872;-44
2024/01/11 00:16:57;;;;;;;;;;;-2.60;87.60;;;;;;4994057;28;92536;-45
2024/01/11 00:19:23;;;;;;;;;;;-2.60;87.60;;;;;;4997302;28;92077;-44
2024/01/11 00:21:49;;;;;;;;;;;-2.60;87.60;;;;;;4994423;28;92969;-44
2024/01/11 00:24:14;;;;;;;;;;;-2.70;87.50;;;;;;5000472;28;91915;-44
2024/01/11 00:26:41;;;;;;;;;;;-2.70;87.50;;;;;;5003262;28;92326;-45
2024/01/11 00:29:07;;;;;;;;;;;-2.60;87.50;;;;;;4992798;28;93597;-44
2024/01/11 00:31:32;;;;;;;;;;;-2.70;87.50;;;;;;5000386;28;93076;-45
2024/01/11 00:33:58;;;;;;;;;;;-2.70;87.50;;;;;;4993566;28;92668;-44
2024/01/11 00:36:23;;;;;;;;;;;-2.70;87.40;;;;;;4993446;28;92043;-45
2024/01/11 00:38:49;;;;;;;;;;;-2.70;87.40;;;;;;4997496;28;92039;-45
2024/01/11 00:41:15;;;;;;;;;;;-2.70;87.40;;;;;;4997970;28;92005;-45
2024/01/11 00:43:40;;;;;;;;;;;-2.70;87.40;;;;;;4993702;28;92449;-45
2024/01/11 00:46:06;;;;;;;;;;;-2.70;87.40;;;;;;4993383;28;92059;-45
2024/01/11 00:48:31;;;;;;;;;;;-2.70;87.50;;;;;;4995603;28;91761;-45
2024/01/11 00:50:57;;;;;;;;;;;-2.70;87.50;;;;;;4993697;28;91967;-44
2024/01/11 00:53:22;;;;;;;;;;;-2.70;87.50;;;;;;4997735;28;91931;-45
2024/01/11 00:55:48;;;;;;;;;;;-2.70;87.50;;;;;;4992257;28;94494;-44
2024/01/11 00:58:13;;;;;;;;;;;-2.70;87.40;;;;;;4996229;28;93400;-44
2024/01/11 01:00:39;;;;;;;;;;;-2.70;87.40;;;;;;5002886;28;92761;-44
2024/01/11 01:03:04;;;;;;;;;;;-2.70;87.40;;;;;;4996435;28;92497;-44
2024/01/11 01:05:30;;;;;;;;;;;-2.80;87.30;;;;;;4992845;28;91966;-44
2024/01/11 01:07:56;;;;;;;;;;;-2.80;87.30;;;;;;4996829;28;92864;-44
2024/01/11 01:10:21;;;;;;;;;;;-2.80;87.30;;;;;;4998916;28;92524;-45
2024/01/11 01:12:47;;;;;;;;;;;-2.80;87.40;;;;;;4995946;28;92074;-46
2024/01/11 01:15:14;;;;;;;;;;;-2.80;87.30;;;;;;4999980;28;93934;-45
2024/01/11 01:17:39;;;;;;;;;;;-2.80;87.40;;;;;;4996121;28;92106;-45
2024/01/11 01:20:05;;;;;;;;;;;-2.80;87.40;;;;;;4992513;28;92739;-44
2024/01/11 01:22:31;;;;;;;;;;;-2.80;87.40;;;;;;4995631;28;93494;-45
2024/01/11 01:24:56;;;;;;;;;;;-2.80;87.40;;;;;;4996763;28;92150;-45
2024/01/11 01:27:22;;;;;;;;;;;-2.80;87.30;;;;;;4996461;28;91940;-44
2024/01/11 01:29:47;;;;;;;;;;;-2.90;87.40;;;;;;4988215;28;92618;-44
2024/01/11 01:32:13;;;;;;;;;;;-2.80;87.40;;;;;;4998197;28;91976;-44
2024/01/11 01:34:39;;;;;;;;;;;-2.90;87.30;;;;;;4991214;28;93781;-44
2024/01/11 01:37:04;;;;;;;;;;;-2.90;87.30;;;;;;4999244;28;91357;-45
2024/01/11 01:39:30;;;;;;;;;;;-2.80;87.30;;;;;;4996670;28;92000;-44
2024/01/11 01:41:55;;;;;;;;;;;-2.90;87.30;;;;;;4996085;28;92493;-45
2024/01/11 01:44:21;;;;;;;;;;;-2.90;87.30;;;;;;4995622;28;92997;-44
2024/01/11 01:46:47;;;;;;;;;;;-2.90;87.30;;;;;;4995250;28;92676;-44
2024/01/11 01:49:13;;;;;;;;;;;-2.90;87.30;;;;;;4992661;28;93735;-44
2024/01/11 01:51:39;;;;;;;;;;;-2.90;87.30;;;;;;4995506;28;92268;-44
2024/01/11 01:54:05;;;;;;;;;;;-2.90;87.30;;;;;;4994981;28;92988;-45
2024/01/11 01:56:31;;;;;;;;;;;-2.90;87.30;;;;;;4995754;28;92178;-44
2024/01/11 01:58:57;;;;;;;;;;;-2.90;87.20;;;;;;4994526;28;92167;-44
2024/01/11 02:01:23;;;;;;;;;;;-2.90;87.30;;;;;;4996526;28;91773;-44
2024/01/11 02:03:52;;;;;;;;;;;-2.90;87.40;;;;;;4992435;28;92069;-44
2024/01/11 02:06:18;;;;;;;;;;;-2.90;87.40;;;;;;4995765;28;92483;-45
2024/01/11 02:08:44;;;;;;;;;;;-3.00;87.20;;;;;;4987038;28;93465;-44
2024/01/11 02:11:10;;;;;;;;;;;-3.00;87.20;;;;;;4989604;28;92556;-44
2024/01/11 02:13:36;;;;;;;;;;;-3.00;87.20;;;;;;5001978;28;91960;-45
2024/01/11 02:16:02;;;;;;;;;;;-3.00;87.20;;;;;;4995840;28;92165;-44
2024/01/11 02:18:28;;;;;;;;;;;-3.00;87.20;;;;;;4991417;28;92064;-45
2024/01/11 02:20:54;;;;;;;;;;;-3.00;87.20;;;;;;4995681;28;92608;-43
2024/01/11 02:23:24;;;;;;;;;;;-3.00;87.20;;;;;;4995816;28;92012;-44
2024/01/11 02:25:49;;;;;;;;;;;-3.00;87.20;;;;;;4992747;28;91831;-44
2024/01/11 02:28:15;;;;;;;;;;;-3.00;87.20;;;;;;4995503;28;92451;-44
2024/01/11 02:30:40;;;;;;;;;;;-3.00;87.20;;;;;;4991370;28;93784;-44
2024/01/11 02:33:06;;;;;;;;;;;-3.00;87.20;;;;;;4987908;28;93000;-44
2024/01/11 02:35:32;;;;;;;;;;;-3.00;87.20;;;;;;4998261;28;94113;-44
2024/01/11 02:37:59;;;;;;;;;;;-3.00;87.10;;;;;;4991969;28;92049;-44
2024/01/11 02:40:25;;;;;;;;;;;-3.10;87.60;;;;;;4994834;28;93658;-45
2024/01/11 02:42:51;;;;;;;;;;;-3.00;87.20;;;;;;4995622;28;91984;-44
2024/01/11 02:45:16;;;;;;;;;;;-3.00;87.10;;;;;;4998332;28;92881;-44
2024/01/11 02:47:42;;;;;;;;;;;-3.00;87.10;;;;;;4992232;28;93416;-44
2024/01/11 02:50:08;;;;;;;;;;;-3.10;87.00;;;;;;4987842;28;91341;-45
2024/01/11 02:52:34;;;;;;;;;;;-3.10;87.10;;;;;;4995239;28;92270;-43
2024/01/11 02:54:59;;;;;;;;;;;-3.10;87.10;;;;;;4991307;28;93511;-45
2024/01/11 02:57:25;;;;;;;;;;;-3.10;87.10;;;;;;5001643;28;93001;-44
2024/01/11 02:59:51;;;;;;;;;;;-3.10;87.20;;;;;;4990261;28;92484;-45
2024/01/11 03:02:16;;;;;;;;;;;-3.10;87.10;;;;;;4995106;28;92098;-44
2024/01/11 03:04:42;;;;;;;;;;;-3.10;87.10;;;;;;4995410;28;91918;-44
2024/01/11 03:07:07;;;;;;;;;;;-3.20;87.10;;;;;;4998497;28;92434;-44
2024/01/11 03:09:34;;;;;;;;;;;-3.20;87.20;;;;;;4991809;28;92120;-45
2024/01/11 03:12:00;;;;;;;;;;;-3.10;87.10;;;;;;4992282;28;92415;-43
2024/01/11 03:14:25;;;;;;;;;;;-3.20;87.10;;;;;;4993369;28;91844;-43
2024/01/11 03:16:51;;;;;;;;;;;-3.20;87.10;;;;;;4996312;28;92097;-44
2024/01/11 03:19:16;;;;;;;;;;;-3.20;87.10;;;;;;4995139;28;92898;-46
2024/01/11 03:21:45;;;;;;;;;;;-3.20;87.10;;;;;;4994615;28;93030;-45
2024/01/11 03:24:10;;;;;;;;;;;-3.20;87.10;;;;;;4995488;28;93844;-44
2024/01/11 03:26:36;;;;;;;;;;;-3.20;87.10;;;;;;4990906;28;92505;-44
2024/01/11 03:29:02;;;;;;;;;;;-3.20;87.10;;;;;;4994243;28;92096;-44
2024/01/11 03:31:27;;;;;;;;;;;-3.20;87.10;;;;;;4992441;28;92852;-45
2024/01/11 03:33:53;;;;;;;;;;;-3.20;87.10;;;;;;4990873;28;92560;-45
2024/01/11 03:36:22;;;;;;;;;;;-3.20;87.20;;;;;;4991014;28;92179;-45
2024/01/11 03:38:48;;;;;;;;;;;-3.30;87.10;;;;;;4994171;28;91751;-45
2024/01/11 03:41:13;;;;;;;;;;;-3.20;87.20;;;;;;4991366;28;92254;-46
2024/01/11 03:43:39;;;;;;;;;;;-3.30;87.10;;;;;;4991536;28;92163;-43
2024/01/11 03:46:04;;;;;;;;;;;-3.20;87.10;;;;;;4992990;28;94587;-44
2024/01/11 03:48:31;;;;;;;;;;;-3.30;87.00;;;;;;4990957;28;92117;-43
2024/01/11 03:50:56;;;;;;;;;;;-3.30;87.20;;;;;;4990517;28;93017;-43
2024/01/11 03:53:22;;;;;;;;;;;-3.30;87.20;;;;;;4994029;28;92595;-45
2024/01/11 03:55:47;;;;;;;;;;;-3.30;87.20;;;;;;4990831;28;92036;-44
2024/01/11 03:58:14;;;;;;;;;;;-3.30;87.10;;;;;;4990861;28;91860;-44
2024/01/11 04:00:39;;;;;;;;;;;-3.30;87.20;;;;;;4995871;28;93614;-44
2024/01/11 04:03:06;;;;;;;;;;;-3.30;87.10;;;;;;4995616;28;91194;-44
2024/01/11 04:05:31;;;;;;;;;;;-3.30;87.10;;;;;;4990513;28;92737;-44
2024/01/11 04:07:57;;;;;;;;;;;-3.30;87.20;;;;;;4994738;28;91831;-44
2024/01/11 04:10:22;;;;;;;;;;;-3.40;87.10;;;;;;4990237;28;92794;-45
2024/01/11 04:12:48;;;;;;;;;;;-3.40;87.10;;;;;;4994265;28;92612;-45
2024/01/11 04:15:14;;;;;;;;;;;-3.40;87.20;;;;;;4990713;28;92576;-43
2024/01/11 04:17:40;;;;;;;;;;;-3.40;87.10;;;;;;4992646;28;92769;-43
2024/01/11 04:20:06;;;;;;;;;;;-3.40;87.10;;;;;;4990364;28;92675;-45
2024/01/11 04:22:32;;;;;;;;;;;-3.40;87.10;;;;;;4998999;28;92022;-44
2024/01/11 04:24:58;;;;;;;;;;;-3.40;87.10;;;;;;4993372;28;92798;-44
2024/01/11 04:27:23;;;;;;;;;;;-3.40;87.00;;;;;;4998406;28;91300;-44
2024/01/11 04:29:49;;;;;;;;;;;-3.40;87.10;;;;;;4994048;28;91909;-44
2024/01/11 04:32:14;;;;;;;;;;;-3.40;87.10;;;;;;4998060;28;93428;-45
2024/01/11 04:34:40;;;;;;;;;;;-3.40;87.10;;;;;;4993304;28;93078;-43
2024/01/11 04:37:06;;;;;;;;;;;-3.40;87.20;;;;;;4997645;28;92937;-45
2024/01/11 04:39:31;;;;;;;;;;;-3.40;87.00;;;;;;4993215;28;92435;-44
2024/01/11 04:41:57;;;;;;;;;;;-3.40;87.10;;;;;;4993888;28;92076;-45
2024/01/11 04:44:22;;;;;;;;;;;-3.50;87.00;;;;;;5003876;28;92907;-44
2024/01/11 04:46:48;;;;;;;;;;;-3.40;87.10;;;;;;4993372;28;92119;-46
2024/01/11 04:49:13;;;;;;;;;;;-3.50;87.00;;;;;;4997376;28;92234;-44
2024/01/11 04:51:39;;;;;;;;;;;-3.50;87.00;;;;;;4997706;28;91687;-44
2024/01/11 04:54:05;;;;;;;;;;;-3.50;87.00;;;;;;4993988;28;92107;-44
2024/01/11 04:56:30;;;;;;;;;;;-3.50;87.00;;;;;;4997189;28;91975;-44
2024/01/11 04:58:56;;;;;;;;;;;-3.50;87.00;;;;;;4992699;28;93450;-43
2024/01/11 05:01:21;;;;;;;;;;;-3.50;86.90;;;;;;4995756;28;92099;-44
2024/01/11 05:03:48;;;;;;;;;;;-3.50;87.00;;;;;;4993868;28;92826;-43
2024/01/11 05:06:20;;;;;;;;;;;-3.50;87.00;;;;;;4996026;28;92463;-44
2024/01/11 05:08:46;;;;;;;;;;;-3.50;87.10;;;;;;4997189;28;92007;-44
2024/01/11 05:11:16;;;;;;;;;;;-3.50;87.50;;;;;;4992667;28;92447;-43
2024/01/11 05:13:42;;;;;;;;;;;-3.50;87.00;;;;;;4993879;28;92042;-44
2024/01/11 05:16:08;;;;;;;;;;;-3.60;87.00;;;;;;4997784;28;91794;-45
2024/01/11 05:18:34;;;;;;;;;;;-3.50;86.90;;;;;;4994929;28;92464;-44
2024/01/11 05:20:59;;;;;;;;;;;-3.50;87.00;;;;;;4994138;28;92045;-44
2024/01/11 05:23:25;;;;;;;;;;;-3.60;87.00;;;;;;4992411;28;92979;-44
2024/01/11 05:25:50;;;;;;;;;;;-3.60;86.90;;;;;;4992474;28;92471;-44
2024/01/11 05:28:16;;;;;;;;;;;-3.60;87.00;;;;;;4999171;28;92057;-44
2024/01/11 05:30:41;;;;;;;;;;;-3.60;87.00;;;;;;4993003;28;92620;-45
2024/01/11 05:33:07;;;;;;;;;;;-3.60;87.00;;;;;;4996512;28;92065;-45
2024/01/11 05:35:32;;;;;;;;;;;-3.60;87.00;;;;;;4995978;28;91952;-44
2024/01/11 05:37:58;;;;;;;;;;;-3.60;87.00;;;;;;4992035;28;93479;-44
2024/01/11 05:40:23;;;;;;;;;;;-3.60;87.10;;;;;;4993844;28;91280;-44
2024/01/11 05:42:49;;;;;;;;;;;-3.60;87.00;;;;;;4996382;28;92142;-43
2024/01/11 05:45:16;;;;;;;;;;;-3.60;87.00;;;;;;4992183;28;93592;-43
2024/01/11 05:47:42;;;;;;;;;;;-3.60;87.00;;;;;;4997758;28;93005;-43
2024/01/11 05:50:08;;;;;;;;;;;-3.70;87.00;;;;;;4995523;28;92466;-44
2024/01/11 05:52:34;;;;;;;;;;;-3.70;87.00;;;;;;4993167;28;91977;-43
2024/01/11 05:54:59;;;;;;;;;;;-3.70;87.00;;;;;;4996274;28;92394;-44
2024/01/11 05:57:25;;;;;;;;;;;-3.70;87.00;;;;;;4992814;28;92541;-44
2024/01/11 05:59:50;;;;;;;;;;;-3.70;87.00;;;;;;4995788;28;92101;-44
2024/01/11 06:02:16;;;;;;;;;;;-3.70;87.00;;;;;;4995110;28;92919;-44
2024/01/11 06:04:41;;;;;;;;;;;-3.70;87.00;;;;;;4994318;28;92358;-44
2024/01/11 06:07:07;;;;;;;;;;;-3.70;87.10;;;;;;4991680;28;92171;-43
2024/01/11 06:09:32;;;;;;;;;;;-3.70;86.90;;;;;;4993344;28;92990;-44
2024/01/11 06:11:59;;;;;;;;;;;-3.70;86.90;;;;;;4991930;28;92879;-45
2024/01/11 06:14:24;;;;;;;;;;;-3.70;86.80;;;;;;4995687;28;93837;-44
2024/01/11 06:16:50;;;;;;;;;;;-3.70;87.00;;;;;;4991144;28;92813;-43
2024/01/11 06:19:16;;;;;;;;;;;-3.70;87.00;;;;;;4994805;28;92058;-44
2024/01/11 06:21:41;;;;;;;;;;;-3.80;86.90;;;;;;4992122;28;91910;-43
2024/01/11 06:24:07;;;;;;;;;;;-3.80;87.00;;;;;;4997178;28;93496;-43
2024/01/11 06:26:32;;;;;;;;;;;-3.80;87.00;;;;;;4991641;28;92127;-44
2024/01/11 06:28:58;;;;;;;;;;;-3.80;86.90;;;;;;4998457;28;91863;-45
2024/01/11 06:31:24;;;;;;;;;;;-3.80;86.90;;;;;;4994472;28;94129;-43
2024/01/11 06:33:49;;;;;;;;;;;-3.80;86.80;;;;;;4993029;28;92233;-45
2024/01/11 06:36:15;;;;;;;;;;;-3.80;86.90;;;;;;4987766;28;93671;-44
2024/01/11 06:38:41;;;;;;;;;;;-3.80;86.90;;;;;;4993286;28;93147;-44
2024/01/11 06:41:06;;;;;;;;;;;-3.80;86.80;;;;;;4987828;28;93121;-43
2024/01/11 06:43:32;;;;;;;;;;;-3.80;86.90;;;;;;4995771;28;92515;-46
2024/01/11 06:46:02;;;;;;;;;;;-3.80;86.90;;;;;;4993310;28;92998;-44
2024/01/11 06:48:28;;;;;;;;;;;-3.80;86.90;;;;;;4989681;28;92812;-44
2024/01/11 06:50:54;;;;;;;;;;;-3.80;86.90;;;;;;4995022;28;92644;-44
2024/01/11 06:53:19;;;;;;;;;;;-3.80;86.90;;;;;;4996778;28;91298;-43
2024/01/11 06:55:45;;;;;;;;;;;-3.80;86.90;;;;;;4995002;28;92468;-49
2024/01/11 06:58:10;;;;;;;;;;;-3.80;86.80;;;;;;4997316;28;92107;-44
2024/01/11 07:00:36;;;;;;;;;;;-3.80;86.90;;;;;;4990751;28;92982;-43
2024/01/11 07:03:02;;;;;;;;;;;-3.80;86.90;;;;;;4995267;28;93744;-44
2024/01/11 07:05:29;;;;;;;;;;;-3.80;86.80;;;;;;4992116;28;91978;-44
2024/01/11 07:07:54;;;;;;;;;;;-3.90;86.80;;;;;;4994815;28;93023;-43
2024/01/11 07:10:20;;;;;;;;;;;-3.80;86.80;;;;;;4991121;28;92446;-43
2024/01/11 07:12:47;;;;;;;;;;;-3.90;86.80;;;;;;4996386;28;92196;-44
2024/01/11 07:15:14;;;;;;;;;;;-3.80;86.90;;;;;;4997696;28;93672;-44
2024/01/11 07:17:40;;;;;;;;;;;-3.90;86.70;;;;;;4992215;28;91365;-44
2024/01/11 07:20:06;;;;;;;;;;;-3.90;86.80;;;;;;4996512;28;92154;-44
2024/01/11 07:22:31;;;;;;;;;;;-3.90;86.70;;;;;;4992929;28;93669;-44
2024/01/11 07:24:57;;;;;;;;;;;-3.90;86.70;;;;;;4986681;28;93017;-43
2024/01/11 07:27:23;;;;;;;;;;;-3.90;86.70;;;;;;4994708;28;92921;-43
2024/01/11 07:29:48;;;;;;;;;;;-3.90;86.70;;;;;;4996078;28;92579;-43
2024/01/11 07:32:14;;;;;;;;;;;-3.90;86.70;;;;;;4991093;28;92390;-43
2024/01/11 07:34:39;;;;;;;;;;;-3.90;86.70;;;;;;4991330;28;92294;-44
2024/01/11 07:37:05;;;;;;;;;;;-3.90;86.70;;;;;;4993920;28;91951;-44
2024/01/11 07:39:30;;;;;;;;;;;-3.90;86.70;;;;;;4993004;28;92091;-44
2024/01/11 07:41:56;;;;;;;;;;;-3.90;86.60;;;;;;4993694;28;91799;-44
2024/01/11 07:44:22;;;;;;;;;;;-3.90;86.80;;;;;;4991059;28;92093;-43
2024/01/11 07:46:47;;;;;;;;;;;-3.90;86.70;;;;;;4991987;28;92143;-44
2024/01/11 07:49:13;;;;;;;;;;;-3.90;86.80;;;;;;4989455;28;93882;-44
2024/01/11 07:51:38;;;;;;;;;;;-3.90;86.80;;;;;;4995808;28;92402;-45
2024/01/11 07:54:04;;;;;;;;;;;-3.90;86.90;;;;;;4994604;28;92905;-44
2024/01/11 07:56:30;;;;;;;;;;;-3.90;86.90;;;;;;4997259;28;92719;-44
2024/01/11 07:58:56;;;;;;;;;;;-3.90;86.90;;;;;;4996952;28;92218;-43
2024/01/11 08:01:21;;;;;;;;;;;-3.90;86.90;;;;;;5000839;28;93421;-44
2024/01/11 08:03:47;;;;;;;;;;;-3.90;87.10;;;;;;4994688;28;92106;-44
2024/01/11 08:06:13;;;;;;;;;;;-3.90;87.00;;;;;;4996097;28;92857;-44
2024/01/11 08:08:38;;;;;;;;;;;-3.90;86.90;;;;;;4988925;28;93649;-44
2024/01/11 08:11:04;;;;;;;;;;;-3.90;86.90;;;;;;4995813;28;92701;-44
2024/01/11 08:13:31;;;;;;;;;;;-3.90;87.00;;;;;;4993658;28;92841;-43
2024/01/11 08:15:57;;;;;;;;;;;-3.90;86.90;;;;;;4994541;28;93639;-45
2024/01/11 08:18:23;;;;;;;;;;;-3.90;87.00;;;;;;4997265;28;92174;-46
2024/01/11 08:20:49;;;;;;;;;;;-3.90;87.00;;;;;;4991209;28;93455;-44
2024/01/11 08:23:15;;;;;;;;;;;-4.00;87.10;;;;;;4993983;28;92067;-44
2024/01/11 08:25:40;;;;;;;;;;;-3.90;87.10;;;;;;5001937;28;92982;-44
2024/01/11 08:28:07;;;;;;;;;;;-3.90;87.20;;;;;;4995568;28;92582;-43
2024/01/11 08:30:32;;;;;;;;;;;-4.00;87.20;;;;;;4992298;28;92413;-45
2024/01/11 08:32:58;;;;;;;;;;;-4.00;87.20;;;;;;4994014;28;91932;-44
2024/01/11 08:35:23;;;;;;;;;;;-3.90;87.30;;;;;;4994779;28;92830;-44
2024/01/11 08:37:49;;;;;;;;;;;-4.00;87.20;;;;;;4993007;28;93672;-44
2024/01/11 08:40:15;;;;;;;;;;;-3.90;87.40;;;;;;4995313;28;92671;-45
2024/01/11 08:42:42;;;;;;;;;;;-4.00;87.40;;;;;;4996931;28;92024;-45
2024/01/11 08:45:08;;;;;;;;;;;-4.00;87.40;;;;;;4993334;28;93829;-46
2024/01/11 08:47:34;;;;;;;;;;;-4.00;87.50;;;;;;4993288;28;92278;-45
2024/01/11 08:50:00;;;;;;;;;;;-4.00;87.60;;;;;;4998231;28;92174;-45
2024/01/11 08:52:25;;;;;;;;;;;-4.00;87.60;;;;;;4997260;28;92983;-44
2024/01/11 08:54:51;;;;;;;;;;;-4.00;87.50;;;;;;4996003;28;92635;-44
2024/01/11 08:57:17;;;;;;;;;;;-3.90;87.60;;;;;;4993043;28;92165;-43
2024/01/11 08:59:42;;;;;;;;;;;-4.00;87.60;;;;;;5000115;28;93478;-45
2024/01/11 09:02:08;;;;;;;;;;;-4.00;87.60;;;;;;4998993;28;94555;-44
2024/01/11 09:04:33;;;;;;;;;;;-4.00;87.70;;;;;;4991462;28;92777;-44
2024/01/11 09:06:59;;;;;;;;;;;-4.00;87.70;;;;;;4996787;28;93532;-44
2024/01/11 09:09:25;;;;;;;;;;;-4.00;87.70;;;;;;5003044;28;92782;-45
2024/01/11 09:11:50;;;;;;;;;;;-4.00;87.80;;;;;;4994726;28;92045;-44
2024/01/11 09:14:16;;;;;;;;;;;-4.00;87.90;;;;;;4994179;28;93151;-44
2024/01/11 09:16:42;;;;;;;;;;;-3.90;87.90;;;;;;4991176;28;92197;-44
2024/01/11 09:19:07;;;;;;;;;;;-4.00;87.80;;;;;;4996930;28;92190;-44
2024/01/11 09:21:33;;;;;;;;;;;-4.00;87.70;;;;;;4996136;28;92510;-43
2024/01/11 09:23:58;;;;;;;;;;;-4.00;87.70;;;;;;5000512;28;92758;-43
2024/01/11 09:26:24;;;;;;;;;;;-3.90;87.70;;;;;;4991957;28;93409;-44
2024/01/11 09:28:49;;;;;;;;;;;-3.90;87.90;;;;;;4996968;28;92092;-44
2024/01/11 09:31:15;;;;;;;;;;;-3.90;87.90;;;;;;4995720;28;92072;-45
2024/01/11 09:33:45;;;;;;;;;;;-3.90;87.70;;;;;;4995093;28;93476;-44
2024/01/11 09:36:10;;;;;;;;;;;-3.90;87.60;;;;;;4992748;28;92120;-46
2024/01/11 09:38:37;;;;;;;;;;;-3.90;87.70;;;;;;5004546;28;92835;-44
2024/01/11 09:41:03;;;;;;;;;;;-3.90;87.70;;;;;;4994201;28;92776;-43
2024/01/11 09:43:28;;;;;;;;;;;-3.90;87.50;;;;;;4997710;28;91660;-44
2024/01/11 09:45:56;;;;;;;;;;;-3.80;87.40;;;;;;4994080;28;92761;-44
2024/01/11 09:48:23;;;;;;;;;;;-3.90;87.50;;;;;;5002920;28;92084;-44
2024/01/11 09:50:49;;;;;;;;;;;-3.90;87.60;;;;;;4989759;28;93068;-44
2024/01/11 09:53:16;;;;;;;;;;;-3.90;87.70;;;;;;4994356;28;92603;-44
2024/01/11 09:55:41;;;;;;;;;;;-3.90;87.80;;;;;;4992749;28;92063;-46
2024/01/11 09:58:07;;;;;;;;;;;-3.90;87.70;;;;;;4998590;28;92008;-43
2024/01/11 10:00:34;;;;;;;;;;;-3.90;87.70;;;;;;4994064;28;92571;-44
2024/01/11 10:02:59;;;;;;;;;;;-3.90;87.80;;;;;;4989274;28;92094;-46
2024/01/11 10:05:25;;;;;;;;;;;-3.90;88.10;;;;;;4994932;28;92701;-44
2024/01/11 10:07:51;;;;;;;;;;;-3.90;88.00;;;;;;5000419;28;91294;-45
2024/01/11 10:10:16;;;;;;;;;;;-3.90;88.10;;;;;;4990664;28;93771;-44
2024/01/11 10:12:42;;;;;;;;;;;-3.90;88.20;;;;;;4992758;28;93888;-44
2024/01/11 10:15:11;;;;;;;;;;;-3.90;88.30;;;;;;4991638;28;92943;-45
2024/01/11 10:17:41;;;;;;;;;;;-3.90;88.20;;;;;;4997219;28;96911;-43
2024/01/11 10:20:10;;;;;;;;;;;-3.90;88.40;;;;;;4988488;28;92512;-44
2024/01/11 10:22:36;;;;;;;;;;;-3.90;88.40;;;;;;4990083;28;92104;-45
2024/01/11 10:25:10;;;;;;;;;;;-3.90;88.40;;;;;;4996881;28;92010;-44
2024/01/11 10:27:36;;;;;;;;;;;-3.80;88.50;;;;;;4997511;28;92731;-44
2024/01/11 10:30:02;;;;;;;;;;;-3.80;88.40;;;;;;4996716;28;92666;-43
2024/01/11 10:32:28;;;;;;;;;;;-3.80;88.40;;;;;;4995617;28;92843;-44
2024/01/11 10:34:54;;;;;;;;;;;-3.90;88.40;;;;;;4993802;28;92584;-44
2024/01/11 10:37:21;;;;;;;;;;;-3.80;88.50;;;;;;4993140;28;92026;-45
2024/01/11 10:39:50;;;;;;;;;;;-3.90;88.60;;;;;;4991147;28;93495;-44
2024/01/11 10:42:17;;;;;;;;;;;-3.90;88.90;;;;;;4990866;28;92118;-45
2024/01/11 10:44:46;;;;;;;;;;;-3.90;88.90;;;;;;4998228;28;91968;-45
2024/01/11 10:47:13;;;;;;;;;;;-3.80;88.90;;;;;;4992771;28;93449;-43
2024/01/11 10:49:39;;;;;;;;;;;-3.90;89.00;;;;;;5002295;28;92004;-45
2024/01/11 10:52:07;;;;;;;;;;;-3.90;88.70;;;;;;4995639;28;92355;-43
2024/01/11 10:54:34;;;;;;;;;;;-3.80;88.80;;;;;;4994125;28;92762;-44
2024/01/11 10:57:00;;;;;;;;;;;-3.80;88.90;;;;;;4993171;28;91787;-43
2024/01/11 10:59:26;;;;;;;;;;;-3.80;89.10;;;;;;4992321;28;93510;-44
2024/01/11 11:01:57;;;;;;;;;;;-3.80;89.10;;;;;;4991482;28;91966;-43
2024/01/11 11:04:23;;;;;;;;;;;-3.80;89.10;;;;;;4994285;28;93117;-44
2024/01/11 11:06:55;;;;;;;;;;;-3.80;88.90;;;;;;4993434;28;93354;-45
2024/01/11 11:09:21;;;;;;;;;;;-3.80;89.20;;;;;;4990466;28;92049;-43
2024/01/11 11:11:47;;;;;;;;;;;-3.80;89.00;;;;;;4996157;28;92834;-45
2024/01/11 11:14:17;;;;;;;;;;;-3.80;89.00;;;;;;4988242;28;92167;-45
2024/01/11 11:16:44;;;;;;;;;;;-3.80;89.10;;;;;;4992185;28;92967;-43
2024/01/11 11:19:12;;;;;;;;;;;-3.80;89.20;;;;;;4996969;28;92420;-44
2024/01/11 11:21:44;;;;;;;;;;;-3.80;89.20;;;;;;4997944;28;91315;-44
2024/01/11 11:24:10;;;;;;;;;;;-3.80;89.40;;;;;;4991436;28;92190;-46
2024/01/11 11:26:36;;;;;;;;;;;-3.80;89.40;;;;;;4990997;28;93013;-44
2024/01/11 11:29:08;;;;;;;;;;;-3.80;89.40;;;;;;4990706;28;93050;-44
2024/01/11 11:31:36;;;;;;;;;;;-3.80;89.40;;;;;;4995830;28;92671;-44
2024/01/11 11:34:04;;;;;;;;;;;-3.80;89.60;;;;;;5006332;28;92771;-45
2024/01/11 11:36:30;;;;;;;;;;;-3.80;89.70;;;;;;5003454;28;92026;-45
2024/01/11 11:39:00;;;;;;;;;;;-3.80;89.70;;;;;;5001781;28;93689;-44
2024/01/11 11:41:26;;;;;;;;;;;-3.80;89.60;;;;;;5003801;28;92872;-44
2024/01/11 11:43:52;;;;;;;;;;;-3.80;89.80;;;;;;4998821;28;92049;-44
2024/01/11 11:46:19;;;;;;;;;;;-3.80;89.90;;;;;;5000988;28;91900;-44
2024/01/11 11:48:49;;;;;;;;;;;-3.80;89.80;;;;;;4999325;28;92009;-44
2024/01/11 11:51:15;;;;;;;;;;;-3.80;90.00;;;;;;4998193;28;93144;-45
2024/01/11 11:53:41;;;;;;;;;;;-3.80;90.00;;;;;;5000598;28;93437;-44
2024/01/11 11:56:09;;;;;;;;;;;-3.70;90.10;;;;;;4998952;28;92779;-45
2024/01/11 11:58:35;;;;;;;;;;;-3.80;90.00;;;;;;4998257;28;92581;-46
2024/01/11 12:01:01;;;;;;;;;;;-3.80;90.00;;;;;;4999565;28;92807;-44
2024/01/11 12:03:29;;;;;;;;;;;-3.70;90.10;;;;;;5000485;28;93036;-45
2024/01/11 12:05:55;;;;;;;;;;;-3.80;90.10;;;;;;5000105;28;92508;-44
2024/01/11 12:08:21;;;;;;;;;;;-3.70;90.10;;;;;;5000506;28;92009;-44
2024/01/11 12:10:46;;;;;;;;;;;-3.70;90.10;;;;;;5001561;28;91782;-44
2024/01/11 12:13:12;;;;;;;;;;;-3.70;90.20;;;;;;5000380;28;93701;-45
2024/01/11 12:15:37;;;;;;;;;;;-3.70;90.10;;;;;;5001495;28;92089;-45
2024/01/11 12:18:03;;;;;;;;;;;-3.70;90.10;;;;;;5000535;28;94470;-45
2024/01/11 12:20:29;;;;;;;;;;;-3.70;90.10;;;;;;5000504;28;92876;-45
2024/01/11 12:22:54;;;;;;;;;;;-3.70;90.20;;;;;;4998918;28;92730;-45
2024/01/11 12:25:21;;;;;;;;;;;-3.70;90.20;;;;;;4997533;28;92467;-45
2024/01/11 12:27:47;;;;;;;;;;;-3.70;90.20;;;;;;5000915;28;92080;-45
2024/01/11 12:30:16;;;;;;;;;;;-3.60;90.20;;;;;;4998387;28;92742;-44
2024/01/11 12:32:42;;;;;;;;;;;-3.60;90.20;;;;;;4996845;28;93516;-45
2024/01/11 12:35:08;;;;;;;;;;;-3.60;90.20;;;;;;4998143;28;91309;-46
2024/01/11 12:37:34;;;;;;;;;;;-3.60;90.20;;;;;;5003868;28;92068;-44
2024/01/11 12:39:59;;;;;;;;;;;-3.60;90.20;;;;;;4997931;28;92100;-45
2024/01/11 12:42:26;;;;;;;;;;;-3.60;90.20;;;;;;5001656;28;93598;-45
2024/01/11 12:44:52;;;;;;;;;;;-3.60;90.20;;;;;;4999420;28;91922;-45
2024/01/11 12:47:18;;;;;;;;;;;-3.60;90.30;;;;;;4995960;28;92181;-44
2024/01/11 12:49:45;;;;;;;;;;;-3.60;90.30;;;;;;4993396;28;92064;-43
2024/01/11 12:52:20;;;;;;;;;;;-3.60;90.30;;;;;;4990174;28;93690;-44
2024/01/11 12:54:45;;;;;;;;;;;-3.60;90.30;;;;;;4997025;28;92056;-45
2024/01/11 12:57:12;;;;;;;;;;;-3.60;90.30;;;;;;4994172;28;92716;-44
2024/01/11 12:59:39;;;;;;;;;;;-3.60;90.30;;;;;;5000381;28;91836;-45
2024/01/11 13:02:05;;;;;;;;;;;-3.50;90.40;;;;;;4997558;28;92185;-45
2024/01/11 13:04:31;;;;;;;;;;;-3.50;90.40;;;;;;4996652;28;92520;-44
2024/01/11 13:06:56;;;;;;;;;;;-3.50;90.40;;;;;;4992184;28;93064;-45
2024/01/11 13:09:22;;;;;;;;;;;-3.50;90.40;;;;;;4998608;28;92676;-45
2024/01/11 13:11:48;;;;;;;;;;;-3.50;90.40;;;;;;4995689;28;92485;-46
2024/01/11 13:14:18;;;;;;;;;;;-3.50;90.40;;;;;;4995115;28;93788;-45
2024/01/11 13:16:45;;;;;;;;;;;-3.50;90.40;;;;;;4991954;28;92883;-48
2024/01/11 13:19:11;;;;;;;;;;;-3.50;90.40;;;;;;4994169;28;95733;-46
2024/01/11 13:21:37;;;;;;;;;;;-3.50;90.40;;;;;;4997944;28;91991;-45
2024/01/11 13:24:02;;;;;;;;;;;-3.50;90.40;;;;;;4989505;28;91716;-45
2024/01/11 13:26:28;;;;;;;;;;;-3.40;90.40;;;;;;4992428;28;92107;-45
2024/01/11 13:28:54;;;;;;;;;;;-3.40;90.40;;;;;;4996846;28;92565;-46
2024/01/11 13:31:20;;;;;;;;;;;-3.40;90.40;;;;;;4997538;28;93367;-47
2024/01/11 13:33:46;;;;;;;;;;;-3.40;90.40;;;;;;4996666;28;92131;-46
2024/01/11 13:36:12;;;;;;;;;;;-3.40;90.40;;;;;;4989381;28;92093;-44
2024/01/11 13:38:37;;;;;;;;;;;-3.40;90.40;;;;;;4998121;28;93325;-46
2024/01/11 13:41:05;;;;;;;;;;;-3.40;90.40;;;;;;4994439;28;92062;-46
2024/01/11 13:43:30;;;;;;;;;;;-3.40;90.40;;;;;;4996265;28;93667;-47
2024/01/11 13:45:56;;;;;;;;;;;-3.40;90.40;;;;;;4996145;28;92091;-47
2024/01/11 13:48:21;;;;;;;;;;;-3.30;90.40;;;;;;4995286;28;92172;-45
2024/01/11 13:50:47;;;;;;;;;;;-3.30;90.40;;;;;;4995915;28;94202;-46
2024/01/11 13:53:13;;;;;;;;;;;-3.30;90.40;;;;;;4993661;28;92434;-46
2024/01/11 13:55:38;;;;;;;;;;;-3.30;90.40;;;;;;4985513;28;92983;-46
2024/01/11 13:58:04;;;;;;;;;;;-3.30;90.40;;;;;;4996689;28;92805;-46
2024/01/11 14:00:29;;;;;;;;;;;-3.30;90.40;;;;;;4994649;28;91991;-47
2024/01/11 14:02:55;;;;;;;;;;;-3.30;90.40;;;;;;4994823;28;92111;-45
2024/01/11 14:05:21;;;;;;;;;;;-3.30;90.40;;;;;;4999575;28;92223;-44
2024/01/11 14:07:47;;;;;;;;;;;-3.30;90.40;;;;;;4997587;28;93067;-44
2024/01/11 14:10:14;;;;;;;;;;;-3.20;90.40;;;;;;4999262;28;94087;-45